| time (UTC) | temp F | wind direction | speed MPH | gust MPH | rain 1hr in | rain 24hr in | rain mn in | humidity % | barometer mb |
| 20260510152703 | 87 | 293 | 3.0 | 4.0 | 0.00 | 0.00 | 0.00 | 45 | 1010.2 |
| 20260510151603 | 84 | 203 | 2.0 | 6.0 | 0.00 | 0.00 | 0.00 | 48 | 1010.2 |
| 20260510145502 | 82 | 180 | 4.0 | 8.0 | 0.00 | 0.00 | 0.00 | 49 | 1010.2 |
| 20260510144402 | 86 | 113 | 2.0 | 4.0 | 0.00 | 0.00 | 0.00 | 48 | 1010.2 |
| 20260510142203 | 83 | 158 | 2.0 | 4.0 | 0.00 | 0.00 | 0.00 | 50 | 1009.5 |
| 20260510141202 | 82 | 293 | 2.0 | 3.0 | 0.00 | 0.00 | 0.00 | 54 | 1010.2 |
| 20260510135003 | 80 | 68 | 3.0 | 3.0 | 0.00 | 0.00 | 0.00 | 60 | 1010.5 |
| 20260510132902 | 79 | 180 | 0.0 | 0.0 | 0.00 | 0.00 | 0.00 | 63 | 1010.5 |
| 20260510131802 | 76 | 203 | 0.0 | 0.0 | 0.00 | 0.00 | 0.00 | 65 | 1010.2 |
| 20260510130702 | 77 | 0 | 0.0 | 0.0 | 0.00 | 0.00 | 0.00 | 65 | 1010.5 |
| 20260510125603 | 76 | 23 | 0.0 | 0.0 | 0.00 | 0.00 | 0.00 | 66 | 1010.2 |
| 20260510124603 | 75 | 225 | 0.0 | 0.0 | 0.00 | 0.00 | 0.00 | 68 | 1010.5 |
| 20260510123502 | 73 | 135 | 0.0 | 0.0 | 0.00 | 0.00 | 0.00 | 70 | 1010.2 |
| 20260510122403 | 72 | 45 | 0.0 | 0.0 | 0.00 | 0.00 | 0.00 | 73 | 1010.5 |
| 20260510121303 | 69 | 203 | 0.0 | 0.0 | 0.00 | 0.00 | 0.00 | 78 | 1010.2 |
| 20260510120203 | 67 | 23 | 0.0 | 0.0 | 0.00 | 0.00 | 0.00 | 86 | 1010.2 |
| 20260510114102 | 63 | 225 | 0.0 | 1.0 | 0.00 | 0.00 | 0.00 | 98 | 1009.8 |
| 20260510111902 | 56 | 180 | 0.0 | 0.0 | 0.00 | 0.00 | 0.00 | 98 | 1009.5 |
| 20260510105802 | 53 | 270 | 0.0 | 0.0 | 0.00 | 0.00 | 0.00 | 98 | 1009.1 |
| 20260510103603 | 50 | 23 | 1.0 | 1.0 | 0.00 | 0.00 | 0.00 | 98 | 1009.1 |
| 20260510102502 | 50 | 180 | 0.0 | 0.0 | 0.00 | 0.00 | 0.00 | 98 | 1009.1 |
| 20260510101403 | 50 | 180 | 0.0 | 0.0 | 0.00 | 0.00 | 0.00 | 98 | 1008.1 |
| 20260510100203 | 50 | 203 | 0.0 | 1.0 | 0.00 | 0.00 | 0.00 | 98 | 1008.1 |
| 20260510095003 | 49 | 68 | 0.0 | 0.0 | 0.00 | 0.00 | 0.00 | 98 | 1008.5 |
| 20260510093603 | 50 | 45 | 0.0 | 0.0 | 0.00 | 0.00 | 0.00 | 98 | 1008.5 |
| 20260510092102 | 50 | 180 | 0.0 | 0.0 | 0.00 | 0.00 | 0.00 | 98 | 1008.5 |
| 20260510090502 | 51 | 23 | 0.0 | 1.0 | 0.00 | 0.00 | 0.00 | 98 | 1008.5 |
| 20260510085403 | 52 | 203 | 0.0 | 0.0 | 0.00 | 0.00 | 0.00 | 98 | 1008.5 |
| 20260510084303 | 51 | 270 | 1.0 | 3.0 | 0.00 | 0.00 | 0.00 | 98 | 1008.1 |
| 20260510083303 | 51 | 225 | 1.0 | 2.0 | 0.00 | 0.00 | 0.00 | 98 | 1008.5 |
| 20260510082203 | 49 | 203 | 0.0 | 2.0 | 0.00 | 0.00 | 0.00 | 98 | 1007.8 |
| 20260510081102 | 49 | 45 | 0.0 | 0.0 | 0.00 | 0.00 | 0.00 | 98 | 1008.1 |
| 20260510075803 | 49 | 180 | 0.0 | 0.0 | 0.00 | 0.00 | 0.00 | 98 | 1007.8 |
| 20260510074703 | 49 | 203 | 0.0 | 0.0 | 0.00 | 0.00 | 0.00 | 98 | 1007.5 |
| 20260510073603 | 49 | 270 | 0.0 | 0.0 | 0.00 | 0.00 | 0.00 | 98 | 1007.5 |
| 20260510072403 | 50 | 180 | 0.0 | 0.0 | 0.00 | 0.00 | 0.00 | 98 | 1007.5 |
| 20260510071002 | 50 | 315 | 0.0 | 0.0 | 0.00 | 0.00 | 0.00 | 98 | 1007.1 |
| 20260510065803 | 50 | 270 | 0.0 | 0.0 | 0.00 | 0.00 | 0.00 | 98 | 1007.5 |
| 20260510064802 | 50 | 203 | 0.0 | 0.0 | 0.00 | 0.00 | 0.00 | 98 | 1007.1 |
| 20260510063703 | 50 | 270 | 0.0 | 0.0 | 0.00 | 0.00 | 0.00 | 98 | 1006.8 |
| 20260510061502 | 51 | 203 | 0.0 | 0.0 | 0.00 | 0.00 | 0.00 | 98 | 1007.8 |
| 20260510060302 | 52 | 203 | 0.0 | 0.0 | 0.00 | 0.00 | 0.00 | 98 | 1007.1 |
| 20260510055102 | 52 | 338 | 0.0 | 0.0 | 0.00 | 0.00 | 0.00 | 98 | 1007.5 |
| 20260510052903 | 53 | 0 | 0.0 | 0.0 | 0.00 | 0.00 | 0.00 | 98 | 1007.5 |
| 20260510051703 | 53 | 0 | 0.0 | 0.0 | 0.00 | 0.00 | 0.00 | 98 | 1007.1 |
| 20260510050403 | 53 | 0 | 0.0 | 0.0 | 0.00 | 0.00 | 0.00 | 98 | 1007.5 |
| 20260510044203 | 53 | 315 | 0.0 | 0.0 | 0.00 | 0.00 | 0.00 | 98 | 1007.5 |
| 20260510042903 | 54 | 315 | 0.0 | 0.0 | 0.00 | 0.00 | 0.00 | 96 | 1007.8 |
| 20260510041203 | 54 | 270 | 0.0 | 0.0 | 0.00 | 0.00 | 0.00 | 96 | 1007.8 |
| 20260510040104 | 54 | 293 | 0.0 | 0.0 | 0.00 | 0.00 | 0.00 | 96 | 1007.5 |
| 20260510035403 | 54 | 270 | 0.0 | 0.0 | 0.00 | 0.00 | 0.00 | 95 | 1007.8 |
| 20260510034203 | 54 | 315 | 0.0 | 0.0 | 0.00 | 0.00 | 0.00 | 95 | 1007.5 |
| 20260510033202 | 54 | 23 | 0.0 | 0.0 | 0.00 | 0.00 | 0.00 | 95 | 1007.1 |
| 20260510031902 | 55 | 315 | 0.0 | 0.0 | 0.00 | 0.00 | 0.00 | 93 | 1007.5 |
| 20260510030804 | 55 | 315 | 0.0 | 0.0 | 0.00 | 0.00 | 0.00 | 93 | 1006.8 |
| 20260510025702 | 55 | 315 | 0.0 | 0.0 | 0.00 | 0.00 | 0.00 | 91 | 1007.1 |
| 20260510024504 | 56 | 203 | 0.0 | 0.0 | 0.00 | 0.00 | 0.00 | 91 | 1007.8 |
| 20260510023403 | 56 | 203 | 0.0 | 0.0 | 0.00 | 0.00 | 0.00 | 91 | 1007.5 |
| 20260510022306 | 57 | 315 | 0.0 | 0.0 | 0.00 | 0.00 | 0.00 | 91 | 1007.1 |
| 20260510021303 | 58 | 225 | 0.0 | 0.0 | 0.00 | 0.00 | 0.00 | 90 | 1006.8 |
| 20260510020203 | 58 | 0 | 0.0 | 0.0 | 0.00 | 0.00 | 0.00 | 88 | 1007.5 |
| 20260510013903 | 60 | 225 | 0.0 | 0.0 | 0.00 | 0.00 | 0.00 | 88 | 1007.8 |
| 20260510012803 | 60 | 45 | 0.0 | 0.0 | 0.00 | 0.00 | 0.00 | 86 | 1007.8 |
| 20260510011703 | 61 | 180 | 0.0 | 2.0 | 0.00 | 0.00 | 0.00 | 86 | 1007.5 |
| 20260510010604 | 62 | 225 | 0.0 | 2.0 | 0.00 | 0.00 | 0.00 | 85 | 1007.5 |
| 20260510005603 | 62 | 225 | 4.0 | 4.0 | 0.00 | 0.00 | 0.00 | 85 | 1007.1 |
| 20260510003502 | 63 | 23 | 1.0 | 2.0 | 0.00 | 0.00 | 0.00 | 81 | 1006.4 |
| 20260510001303 | 65 | 113 | 0.0 | 0.0 | 0.00 | 0.00 | 0.00 | 76 | 1006.8 |
| 20260510000204 | 66 | 270 | 0.0 | 4.0 | 0.00 | 0.00 | 0.00 | 75 | 1006.8 |
| 20260509235202 | 68 | 338 | 2.0 | 2.0 | 0.00 | 0.00 | 0.00 | 71 | 1006.4 |
| 20260509234102 | 69 | 45 | 0.0 | 0.0 | 0.00 | 0.00 | 0.00 | 69 | 1006.4 |
| 20260509233003 | 70 | 203 | 0.0 | 2.0 | 0.00 | 0.00 | 0.00 | 66 | 1006.1 |
| 20260509231902 | 72 | 68 | 1.0 | 2.0 | 0.00 | 0.00 | 0.00 | 63 | 1005.8 |
| 20260509230803 | 72 | 45 | 0.0 | 2.0 | 0.00 | 0.00 | 0.00 | 63 | 1006.1 |
| 20260509225803 | 74 | 90 | 1.0 | 3.0 | 0.00 | 0.00 | 0.00 | 60 | 1005.8 |
| 20260509224702 | 75 | 45 | 1.0 | 2.0 | 0.00 | 0.00 | 0.00 | 59 | 1005.8 |
| 20260509222503 | 76 | 90 | 1.0 | 2.0 | 0.00 | 0.00 | 0.00 | 60 | 1005.4 |
| 20260509221402 | 76 | 113 | 2.0 | 4.0 | 0.00 | 0.00 | 0.00 | 59 | 1005.4 |
| 20260509215305 | 76 | 23 | 2.0 | 3.0 | 0.00 | 0.00 | 0.00 | 61 | 1005.8 |
| 20260509213202 | 77 | 270 | 1.0 | 2.0 | 0.00 | 0.00 | 0.00 | 59 | 1006.1 |
| 20260509212103 | 76 | 0 | 0.0 | 1.0 | 0.00 | 0.00 | 0.00 | 59 | 1005.8 |
| 20260509211003 | 78 | 113 | 0.0 | 1.0 | 0.00 | 0.00 | 0.00 | 58 | 1006.1 |
| 20260509205903 | 79 | 45 | 1.0 | 3.0 | 0.00 | 0.00 | 0.00 | 55 | 1005.8 |
| 20260509204803 | 80 | 0 | 4.0 | 4.0 | 0.00 | 0.00 | 0.00 | 54 | 1005.4 |
| 20260509203803 | 82 | 23 | 2.0 | 3.0 | 0.00 | 0.00 | 0.00 | 54 | 1005.8 |
| 20260509202703 | 82 | 203 | 2.0 | 4.0 | 0.00 | 0.00 | 0.00 | 53 | 1005.8 |
| 20260509201702 | 79 | 0 | 3.0 | 4.0 | 0.00 | 0.00 | 0.00 | 55 | 1005.8 |
| 20260509200603 | 81 | 135 | 1.0 | 2.0 | 0.00 | 0.00 | 0.00 | 54 | 1006.1 |
| 20260509195603 | 80 | 0 | 2.0 | 6.0 | 0.00 | 0.00 | 0.00 | 54 | 1006.4 |
| 20260509193502 | 78 | 90 | 1.0 | 4.0 | 0.00 | 0.00 | 0.00 | 56 | 1007.1 |
| 20260509192403 | 79 | 0 | 1.0 | 2.0 | 0.00 | 0.00 | 0.00 | 53 | 1006.8 |
| 20260509191303 | 83 | 293 | 2.0 | 3.0 | 0.00 | 0.00 | 0.00 | 49 | 1006.8 |
| 20260509190203 | 80 | 45 | 2.0 | 2.0 | 0.00 | 0.00 | 0.00 | 51 | 1006.8 |
| 20260509182903 | 71 | 225 | 2.0 | 5.0 | 0.00 | 0.00 | 0.00 | 60 | 1007.8 |
| 20260509181903 | 69 | 180 | 1.0 | 3.0 | 0.00 | 0.00 | 0.00 | 65 | 1007.8 |
| 20260509174602 | 67 | 113 | 0.0 | 4.0 | 0.00 | 0.00 | 0.00 | 70 | 1008.1 |
| 20260509173503 | 68 | 158 | 0.0 | 0.0 | 0.00 | 0.00 | 0.00 | 71 | 1008.1 |
| 20260509170203 | 73 | 23 | 0.0 | 0.0 | 0.00 | 0.00 | 0.00 | 60 | 1008.1 |
| 20260509164003 | 76 | 0 | 2.0 | 3.0 | 0.00 | 0.00 | 0.00 | 55 | 1008.5 |
| 20260509162903 | 75 | 68 | 2.0 | 2.0 | 0.00 | 0.00 | 0.00 | 58 | 1007.8 |
| 20260509161803 | 72 | 315 | 3.0 | 3.0 | 0.00 | 0.00 | 0.00 | 60 | 1008.1 |
| 20260509160703 | 72 | 135 | 1.0 | 4.0 | 0.00 | 0.00 | 0.00 | 60 | 1008.5 |
| 20260509155603 | 72 | 203 | 5.0 | 5.0 | 0.00 | 0.00 | 0.00 | 58 | 1008.1 |
| 20260509153403 | 73 | 338 | 2.0 | 3.0 | 0.00 | 0.00 | 0.00 | 56 | 1007.8 |